createdAt,value
2023-03-06T00:00:44.254Z,29.90
2023-03-06T00:01:44.242Z,29.40
2023-03-06T00:02:44.205Z,29.10
2023-03-06T00:03:44.288Z,31.90
2023-03-06T00:04:44.160Z,29.70
2023-03-06T00:05:44.206Z,31.70
2023-03-06T00:06:44.174Z,32.80
2023-03-06T00:07:44.130Z,33.20
2023-03-06T00:08:44.145Z,32.30
2023-03-06T00:09:44.134Z,31.30
2023-03-06T00:10:44.087Z,30.60
2023-03-06T00:11:44.098Z,33.90
2023-03-06T00:12:44.066Z,31.60
2023-03-06T00:13:44.060Z,29.20
2023-03-06T00:14:44.040Z,30.90
2023-03-06T00:15:44.056Z,30.00
2023-03-06T00:16:44.029Z,32.20
2023-03-06T00:17:44.012Z,31.60
2023-03-06T00:18:44.013Z,30.20
2023-03-06T00:19:43.981Z,32.40
2023-03-06T00:20:43.969Z,30.70
2023-03-06T00:21:43.996Z,32.00
2023-03-06T00:22:43.939Z,31.10
2023-03-06T00:23:43.959Z,31.50
2023-03-06T00:24:43.918Z,32.20
2023-03-06T00:25:43.897Z,31.00
2023-03-06T00:26:43.912Z,33.60
2023-03-06T00:27:43.910Z,32.60
2023-03-06T00:28:43.875Z,34.50
2023-03-06T00:29:43.856Z,31.60
2023-03-06T00:30:43.868Z,30.20
2023-03-06T00:31:43.859Z,31.60
2023-03-06T00:32:43.847Z,31.70
2023-03-06T00:33:43.862Z,30.90
2023-03-06T00:34:43.781Z,33.50
2023-03-06T00:35:43.795Z,33.00
2023-03-06T00:36:43.805Z,35.00
2023-03-06T00:37:43.760Z,33.90
2023-03-06T00:38:43.750Z,32.10
2023-03-06T00:39:43.746Z,33.20
2023-03-06T00:40:43.737Z,35.60
2023-03-06T00:41:46.644Z,31.60
2023-03-06T00:42:43.697Z,33.80
2023-03-06T00:43:43.672Z,32.20
2023-03-06T00:44:43.663Z,34.70
2023-03-06T00:45:43.721Z,35.60
2023-03-06T00:46:43.665Z,32.10
2023-03-06T00:47:43.621Z,33.70
2023-03-06T00:48:43.625Z,31.80
2023-03-06T00:49:43.592Z,31.30
2023-03-06T00:50:43.605Z,33.90
2023-03-06T00:51:43.641Z,31.40
2023-03-06T00:52:43.564Z,35.10
2023-03-06T00:53:43.565Z,35.70
2023-03-06T00:54:43.549Z,36.20
2023-03-06T00:55:43.571Z,34.00
2023-03-06T00:56:43.535Z,34.50
2023-03-06T00:57:43.544Z,33.40
2023-03-06T00:58:43.483Z,31.40
2023-03-06T00:59:43.467Z,35.90
2023-03-06T01:00:43.498Z,35.00
2023-03-06T01:01:43.486Z,34.10
2023-03-06T01:02:43.475Z,36.10
2023-03-06T01:03:43.460Z,34.50
2023-03-06T01:04:43.405Z,33.70
2023-03-06T01:05:43.413Z,37.50
2023-03-06T01:06:43.395Z,33.90
2023-03-06T01:07:43.376Z,35.20
2023-03-06T01:08:43.385Z,35.70
2023-03-06T01:09:43.402Z,34.50
2023-03-06T01:10:43.374Z,34.40
2023-03-06T01:11:43.339Z,34.50
2023-03-06T01:12:43.320Z,32.70
2023-03-06T01:13:43.301Z,34.20
2023-03-06T01:14:43.281Z,38.30
2023-03-06T01:15:43.323Z,38.00
2023-03-06T01:16:43.322Z,36.40
2023-03-06T01:17:43.265Z,37.30
2023-03-06T01:18:43.257Z,35.50
2023-03-06T01:19:43.240Z,37.60
2023-03-06T01:20:43.219Z,37.90
2023-03-06T01:21:43.261Z,40.00
2023-03-06T01:22:43.179Z,36.30
2023-03-06T01:23:43.183Z,40.00
2023-03-06T01:24:43.163Z,42.10
2023-03-06T01:25:43.163Z,38.80
2023-03-06T01:26:43.168Z,42.10
2023-03-06T01:27:43.142Z,39.20
2023-03-06T01:28:43.102Z,42.10
2023-03-06T01:29:43.094Z,44.20
2023-03-06T01:30:43.109Z,40.90
2023-03-06T01:31:43.117Z,39.30
2023-03-06T01:32:43.122Z,41.10
2023-03-06T01:33:43.087Z,39.80
2023-03-06T01:34:43.034Z,38.20
2023-03-06T01:35:43.089Z,40.20
2023-03-06T01:36:43.041Z,41.60
2023-03-06T01:37:43.033Z,39.60
2023-03-06T01:38:43.023Z,39.60
2023-03-06T01:39:43.053Z,41.20
2023-03-06T01:40:42.971Z,42.90
2023-03-06T01:41:42.958Z,37.40
2023-03-06T01:42:42.962Z,41.60
2023-03-06T01:43:42.945Z,39.20
2023-03-06T01:44:42.935Z,39.80
2023-03-06T01:45:42.986Z,40.80
2023-03-06T01:46:42.911Z,43.40
2023-03-06T01:47:42.890Z,40.80
2023-03-06T01:48:42.913Z,41.80
2023-03-06T01:49:42.848Z,41.40
2023-03-06T01:50:42.831Z,43.00
2023-03-06T01:51:42.890Z,36.80
2023-03-06T01:52:42.819Z,40.30
2023-03-06T01:53:42.814Z,53.00
2023-03-06T01:54:42.818Z,59.70
2023-03-06T01:55:42.835Z,69.90
2023-03-06T01:56:42.770Z,105.00
2023-03-06T01:57:42.789Z,123.50
2023-03-06T01:58:42.735Z,159.90
2023-03-06T01:59:42.723Z,138.50
2023-03-06T02:00:42.713Z,138.20
2023-03-06T02:01:42.738Z,148.00
2023-03-06T02:02:42.934Z,105.90
2023-03-06T02:04:54.690Z,63.90
2023-03-06T02:05:55.671Z,60.20
2023-03-06T02:06:55.665Z,66.80
2023-03-06T02:07:55.664Z,61.60
2023-03-06T02:08:55.635Z,78.60
2023-03-06T02:09:55.642Z,107.20
2023-03-06T02:10:55.598Z,96.10
2023-03-06T02:11:55.586Z,86.00
2023-03-06T02:12:55.582Z,79.60
2023-03-06T02:13:55.578Z,76.90
2023-03-06T02:14:55.564Z,58.90
2023-03-06T02:15:55.579Z,61.20
2023-03-06T02:16:55.619Z,57.80
2023-03-06T02:17:55.579Z,62.60
2023-03-06T02:18:55.509Z,67.60
2023-03-06T02:19:55.511Z,67.50
2023-03-06T02:20:55.511Z,65.10
2023-03-06T02:21:55.502Z,66.10
2023-03-06T02:22:55.473Z,57.50
2023-03-06T02:23:55.453Z,57.90
2023-03-06T02:24:55.422Z,62.20
2023-03-06T02:25:55.408Z,82.20
2023-03-06T02:26:55.413Z,75.30
2023-03-06T02:27:55.428Z,57.10
2023-03-06T02:28:55.392Z,49.30
2023-03-06T02:29:55.369Z,43.70
2023-03-06T02:30:55.429Z,48.70
2023-03-06T02:31:55.339Z,45.20
2023-03-06T02:32:55.336Z,39.50
2023-03-06T02:33:55.358Z,38.00
2023-03-06T02:34:55.310Z,39.80
2023-03-06T02:35:55.336Z,39.80
2023-03-06T02:36:55.289Z,38.20
2023-03-06T02:37:55.280Z,37.60
2023-03-06T02:38:55.276Z,38.30
2023-03-06T02:39:55.268Z,36.00
2023-03-06T02:40:55.229Z,38.70
2023-03-06T02:41:55.229Z,37.20
2023-03-06T02:42:55.209Z,36.70
2023-03-06T02:43:55.220Z,38.70
2023-03-06T02:44:55.176Z,39.70
2023-03-06T02:45:55.276Z,33.50
2023-03-06T02:46:55.161Z,37.80
2023-03-06T02:47:55.151Z,39.10
2023-03-06T02:48:55.144Z,38.20
2023-03-06T02:49:55.122Z,37.90
2023-03-06T02:50:55.105Z,40.80
2023-03-06T02:51:55.120Z,36.90
2023-03-06T02:52:55.090Z,38.20
2023-03-06T02:53:55.066Z,36.60
2023-03-06T02:54:55.062Z,36.00
2023-03-06T02:55:55.054Z,38.20
2023-03-06T02:56:55.035Z,35.90
2023-03-06T02:57:55.099Z,38.00
2023-03-06T02:58:55.041Z,38.10
2023-03-06T02:59:55.004Z,36.00
2023-03-06T03:00:54.979Z,34.40
2023-03-06T03:01:54.972Z,37.00
2023-03-06T03:02:54.961Z,38.50
2023-03-06T03:03:54.979Z,35.60
2023-03-06T03:04:55.047Z,38.90
2023-03-06T03:05:54.912Z,37.30
2023-03-06T03:06:54.911Z,37.20
2023-03-06T03:07:54.911Z,35.20
2023-03-06T03:08:54.877Z,37.80
2023-03-06T03:09:54.915Z,36.60
2023-03-06T03:10:54.861Z,35.80
2023-03-06T03:11:54.848Z,32.30
2023-03-06T03:12:54.834Z,38.20
2023-03-06T03:13:54.835Z,37.00
2023-03-06T03:14:54.819Z,36.80
2023-03-06T03:15:54.871Z,37.30
2023-03-06T03:16:54.779Z,36.50
2023-03-06T03:17:55.381Z,37.80
2023-03-06T03:18:54.754Z,35.80
2023-03-06T03:19:54.762Z,37.30
2023-03-06T03:20:54.732Z,34.80
2023-03-06T03:21:54.763Z,37.70
2023-03-06T03:22:54.715Z,38.00
2023-03-06T03:23:54.702Z,38.30
2023-03-06T03:24:54.780Z,37.80
2023-03-06T03:25:54.673Z,36.70
2023-03-06T03:26:54.662Z,37.90
2023-03-06T03:27:54.704Z,37.80
2023-03-06T03:28:54.658Z,37.10
2023-03-06T03:29:54.639Z,37.40
2023-03-06T03:30:54.633Z,36.60
2023-03-06T03:31:54.606Z,35.50
2023-03-06T03:32:54.632Z,36.70
2023-03-06T03:33:54.618Z,34.70
2023-03-06T03:34:54.585Z,37.70
2023-03-06T03:35:54.576Z,33.90
2023-03-06T03:36:54.558Z,33.80
2023-03-06T03:37:54.566Z,36.70
2023-03-06T03:38:54.514Z,38.20
2023-03-06T03:39:54.540Z,35.70
2023-03-06T03:40:54.490Z,34.70
2023-03-06T03:41:54.483Z,35.00
2023-03-06T03:42:54.479Z,34.90
2023-03-06T03:43:54.463Z,38.30
2023-03-06T03:44:54.447Z,37.20
2023-03-06T03:45:54.486Z,37.20
2023-03-06T03:46:54.433Z,34.40
2023-03-06T03:47:54.419Z,38.20
2023-03-06T03:48:54.396Z,35.90
2023-03-06T03:49:54.397Z,34.60
2023-03-06T03:50:54.373Z,36.30
2023-03-06T03:51:54.400Z,37.60
2023-03-06T03:52:54.354Z,36.20
2023-03-06T03:53:54.338Z,37.70
2023-03-06T03:54:54.326Z,35.10
2023-03-06T03:55:54.307Z,38.00
2023-03-06T03:56:54.299Z,34.80
2023-03-06T03:57:54.327Z,37.30
2023-03-06T03:58:54.274Z,36.10
2023-03-06T03:59:54.263Z,37.20
2023-03-06T04:00:54.239Z,40.20
2023-03-06T04:01:54.256Z,35.40
2023-03-06T04:02:54.229Z,38.10
2023-03-06T04:03:54.243Z,36.80
2023-03-06T04:04:54.220Z,38.80
2023-03-06T04:05:54.184Z,39.40
2023-03-06T04:06:54.200Z,38.80
2023-03-06T04:07:54.194Z,40.20
2023-03-06T04:08:54.148Z,36.30
2023-03-06T04:09:54.166Z,36.90
2023-03-06T04:10:54.132Z,36.00
2023-03-06T04:11:54.125Z,36.40
2023-03-06T04:12:54.105Z,39.00
2023-03-06T04:13:54.088Z,33.70
2023-03-06T04:14:54.100Z,35.20
2023-03-06T04:15:54.161Z,37.40
2023-03-06T04:16:54.055Z,37.00
2023-03-06T04:17:54.030Z,34.30
2023-03-06T04:18:54.029Z,37.30
2023-03-06T04:19:54.027Z,35.70
2023-03-06T04:20:53.994Z,35.60
2023-03-06T04:21:54.025Z,35.70
2023-03-06T04:22:53.972Z,37.50
2023-03-06T04:23:53.988Z,35.40
2023-03-06T04:24:53.962Z,37.60
2023-03-06T04:25:53.968Z,37.10
2023-03-06T04:26:53.955Z,36.70
2023-03-06T04:27:53.942Z,38.00
2023-03-06T04:28:53.899Z,35.20
2023-03-06T04:29:53.894Z,36.30
2023-03-06T04:30:53.887Z,37.60
2023-03-06T04:31:53.882Z,38.70
2023-03-06T04:32:53.880Z,37.70
2023-03-06T04:33:53.882Z,37.40
2023-03-06T04:34:53.866Z,32.60
2023-03-06T04:35:53.847Z,37.70
2023-03-06T04:36:53.798Z,39.90
2023-03-06T04:37:53.784Z,39.60
2023-03-06T04:38:53.801Z,38.00
2023-03-06T04:39:53.803Z,38.70
2023-03-06T04:40:53.758Z,35.50
2023-03-06T04:41:53.753Z,38.60
2023-03-06T04:42:53.739Z,37.40
2023-03-06T04:43:53.721Z,37.60
2023-03-06T04:44:53.723Z,36.30
2023-03-06T04:45:53.764Z,35.80
2023-03-06T04:46:53.675Z,38.60
2023-03-06T04:47:53.660Z,37.50
2023-03-06T04:48:53.662Z,40.10
2023-03-06T04:49:53.651Z,39.50
2023-03-06T04:50:53.639Z,38.80
2023-03-06T04:51:53.671Z,36.80
2023-03-06T04:52:53.601Z,35.60
2023-03-06T04:53:53.600Z,40.10
2023-03-06T04:54:53.595Z,38.90
2023-03-06T04:55:53.567Z,39.40
2023-03-06T04:56:53.554Z,37.80
2023-03-06T04:57:53.572Z,42.60
2023-03-06T04:58:53.583Z,41.30
2023-03-06T04:59:53.549Z,39.50
2023-03-06T05:00:53.551Z,38.00
2023-03-06T05:01:53.521Z,37.60
2023-03-06T05:02:53.482Z,38.90
2023-03-06T05:03:53.502Z,43.60
2023-03-06T05:04:53.511Z,38.00
2023-03-06T05:05:53.443Z,41.40
2023-03-06T05:06:53.459Z,40.10
2023-03-06T05:07:53.429Z,38.50
2023-03-06T05:08:53.406Z,41.10
2023-03-06T05:09:53.428Z,42.30
2023-03-06T05:10:53.385Z,44.10
2023-03-06T05:11:53.369Z,45.70
2023-03-06T05:12:53.374Z,45.20
2023-03-06T05:13:53.350Z,45.20
2023-03-06T05:14:53.341Z,48.10
2023-03-06T05:15:53.338Z,49.50
2023-03-06T05:16:53.303Z,48.00
2023-03-06T05:17:53.301Z,46.10
2023-03-06T05:18:53.302Z,48.00
2023-03-06T05:19:53.294Z,49.30
2023-03-06T05:20:53.260Z,47.60
2023-03-06T05:21:53.293Z,47.10
2023-03-06T05:22:53.228Z,46.20
2023-03-06T05:23:53.232Z,42.40
2023-03-06T05:24:53.238Z,40.90
2023-03-06T05:25:53.219Z,40.60
2023-03-06T05:26:53.180Z,40.80
2023-03-06T05:27:53.209Z,40.70
2023-03-06T05:28:53.166Z,42.00
2023-03-06T05:29:53.140Z,36.20
2023-03-06T05:30:53.147Z,40.00
2023-03-06T05:31:53.205Z,39.40
2023-03-06T05:32:53.202Z,38.40
2023-03-06T05:33:53.131Z,42.60
2023-03-06T05:34:53.116Z,41.10
2023-03-06T05:35:53.135Z,37.20
2023-03-06T05:36:53.058Z,35.30
2023-03-06T05:37:53.051Z,42.70
2023-03-06T05:38:53.038Z,37.10
2023-03-06T05:39:53.054Z,38.50
2023-03-06T05:40:53.019Z,40.80
2023-03-06T05:41:53.008Z,40.50
2023-03-06T05:42:53.000Z,38.60
2023-03-06T05:43:52.978Z,38.90
2023-03-06T05:44:52.992Z,39.10
2023-03-06T05:45:53.022Z,38.40
2023-03-06T05:46:52.948Z,36.80
2023-03-06T05:47:52.937Z,36.50
2023-03-06T05:48:52.952Z,39.50
2023-03-06T05:49:52.922Z,37.20
2023-03-06T05:50:52.902Z,36.80
2023-03-06T05:51:52.968Z,37.10
2023-03-06T05:52:52.872Z,35.40
2023-03-06T05:53:52.901Z,37.20
2023-03-06T05:54:52.868Z,35.40
2023-03-06T05:55:52.834Z,36.10
2023-03-06T05:56:52.838Z,37.20
2023-03-06T05:57:52.839Z,36.30
2023-03-06T05:58:52.802Z,39.10
2023-03-06T05:59:52.786Z,39.60
2023-03-06T06:00:52.780Z,35.40
2023-03-06T06:01:52.763Z,37.00
2023-03-06T06:02:52.764Z,37.80
2023-03-06T06:03:52.826Z,40.00
2023-03-06T06:04:52.757Z,39.80
2023-03-06T06:05:52.711Z,41.20
2023-03-06T06:06:52.692Z,33.90
2023-03-06T06:07:52.689Z,40.30
2023-03-06T06:08:52.658Z,37.40
2023-03-06T06:09:52.691Z,37.70
2023-03-06T06:10:53.540Z,38.50
2023-03-06T06:11:52.641Z,38.90
2023-03-06T06:12:52.620Z,36.30
2023-03-06T06:13:52.627Z,35.50
2023-03-06T06:14:52.589Z,37.30
2023-03-06T06:15:52.635Z,36.70
2023-03-06T06:16:52.569Z,36.40
2023-03-06T06:17:52.560Z,36.50
2023-03-06T06:18:52.534Z,36.70
2023-03-06T06:19:52.530Z,35.00
2023-03-06T06:20:54.381Z,36.70
2023-03-06T06:21:52.540Z,36.90
2023-03-06T06:22:52.500Z,36.60
2023-03-06T06:23:52.481Z,35.40
2023-03-06T06:24:52.479Z,39.80
2023-03-06T06:25:52.483Z,33.30
2023-03-06T06:26:52.449Z,37.90
2023-03-06T06:27:52.498Z,35.40
2023-03-06T06:28:52.412Z,37.60
2023-03-06T06:29:52.425Z,35.70
2023-03-06T06:30:52.405Z,33.40
2023-03-06T06:31:52.375Z,36.10
2023-03-06T06:32:52.358Z,33.80
2023-03-06T06:33:52.387Z,35.70
2023-03-06T06:34:52.361Z,36.90
2023-03-06T06:35:52.397Z,37.20
2023-03-06T06:36:53.667Z,32.50
2023-03-06T06:37:52.323Z,35.60
2023-03-06T06:38:52.295Z,35.00
2023-03-06T06:39:52.327Z,40.00
2023-03-06T06:41:26.800Z,34.10
2023-03-06T06:42:09.971Z,33.40
2023-03-06T06:42:52.247Z,35.10
2023-03-06T06:43:52.226Z,38.20
2023-03-06T06:44:52.233Z,39.70
2023-03-06T06:45:55.790Z,37.10
2023-03-06T06:47:21.797Z,37.00
2023-03-06T06:47:52.208Z,37.10
2023-03-06T06:48:52.168Z,38.40
2023-03-06T06:49:52.176Z,40.80
2023-03-06T06:50:52.170Z,38.00
2023-03-06T06:51:52.154Z,38.70
2023-03-06T06:52:52.107Z,35.60
2023-03-06T06:53:52.101Z,41.10
2023-03-06T06:54:52.116Z,38.30
2023-03-06T06:55:52.097Z,36.10
2023-03-06T06:56:52.074Z,41.90
2023-03-06T06:57:52.098Z,44.10
2023-03-06T06:58:52.045Z,41.40
2023-03-06T06:59:53.954Z,37.80
2023-03-06T07:00:52.030Z,35.30
2023-03-06T07:01:52.154Z,37.90
2023-03-06T07:02:51.987Z,39.70
2023-03-06T07:03:52.077Z,35.50
2023-03-06T07:05:03.570Z,36.10
2023-03-06T07:05:51.958Z,38.70
2023-03-06T07:06:51.949Z,41.40
2023-03-06T07:07:51.946Z,39.60
2023-03-06T07:08:51.921Z,38.00
2023-03-06T07:09:51.932Z,39.20
2023-03-06T07:10:51.895Z,42.30
2023-03-06T07:11:51.881Z,43.60
2023-03-06T07:12:51.870Z,42.40
2023-03-06T07:13:51.844Z,45.40
2023-03-06T07:14:51.855Z,45.00
2023-03-06T07:15:51.920Z,44.30
2023-03-06T07:16:51.845Z,41.90
2023-03-06T07:17:51.814Z,40.00
2023-03-06T07:18:51.784Z,39.90
2023-03-06T07:19:51.773Z,39.90
2023-03-06T07:20:51.770Z,38.50
2023-03-06T07:21:51.782Z,35.60
2023-03-06T07:22:52.072Z,37.20
2023-03-06T07:23:51.736Z,37.10
2023-03-06T07:24:51.709Z,33.80
2023-03-06T07:25:51.714Z,34.80
2023-03-06T07:26:51.680Z,36.60
2023-03-06T07:27:54.005Z,35.80
2023-03-06T07:28:53.170Z,37.30
2023-03-06T07:29:51.652Z,35.70
2023-03-06T07:30:51.772Z,34.40
2023-03-06T07:31:51.657Z,37.80
2023-03-06T07:32:51.633Z,36.60
2023-03-06T07:33:51.672Z,32.20
2023-03-06T07:34:51.590Z,33.80
2023-03-06T07:35:51.631Z,32.60
2023-03-06T07:36:51.605Z,34.90
2023-03-06T07:37:51.555Z,36.00
2023-03-06T07:38:51.538Z,35.30
2023-03-06T07:39:51.560Z,35.50
2023-03-06T07:40:51.561Z,35.80
2023-03-06T07:41:51.521Z,35.80
2023-03-06T07:42:51.490Z,35.10
2023-03-06T07:43:51.473Z,34.30
2023-03-06T07:44:51.473Z,35.10
2023-03-06T07:45:51.476Z,32.10
2023-03-06T07:46:51.499Z,33.30
2023-03-06T07:47:51.457Z,33.20
2023-03-06T07:48:51.416Z,32.70
2023-03-06T07:49:51.407Z,35.90
2023-03-06T07:50:51.400Z,31.90
2023-03-06T07:51:51.403Z,32.30
2023-03-06T07:52:51.366Z,39.00
2023-03-06T07:53:51.363Z,32.20
2023-03-06T07:54:51.350Z,32.70
2023-03-06T07:55:51.344Z,31.10
2023-03-06T07:56:51.319Z,30.60
2023-03-06T07:57:51.346Z,30.10
2023-03-06T07:58:51.307Z,30.80
2023-03-06T07:59:51.272Z,28.80
2023-03-06T08:00:51.257Z,27.60
2023-03-06T08:01:51.252Z,27.60
2023-03-06T08:02:51.291Z,27.50
2023-03-06T08:03:51.301Z,26.10
2023-03-06T08:04:51.206Z,27.70
2023-03-06T08:05:51.196Z,29.60
2023-03-06T08:06:51.193Z,28.90
2023-03-06T08:07:51.187Z,27.90
2023-03-06T08:08:51.170Z,27.30
2023-03-06T08:09:51.178Z,28.00
2023-03-06T08:10:51.143Z,28.20
2023-03-06T08:11:51.179Z,26.20
2023-03-06T08:12:51.123Z,24.70
2023-03-06T08:13:51.139Z,26.20
2023-03-06T08:14:51.086Z,27.70
2023-03-06T08:15:51.097Z,26.00
2023-03-06T08:16:51.122Z,28.30
2023-03-06T08:17:51.050Z,26.20
2023-03-06T08:18:51.037Z,25.90
2023-03-06T08:19:51.027Z,29.30
2023-03-06T08:20:51.005Z,27.90
2023-03-06T08:21:51.035Z,27.10
2023-03-06T08:22:50.971Z,26.40
2023-03-06T08:23:50.983Z,26.80
2023-03-06T08:24:50.953Z,24.80
2023-03-06T08:25:50.945Z,24.90
2023-03-06T08:26:50.939Z,28.90
2023-03-06T08:27:50.948Z,30.10
2023-03-06T08:28:50.910Z,31.60
2023-03-06T08:29:50.907Z,32.70
2023-03-06T08:30:50.896Z,29.10
2023-03-06T08:31:50.885Z,32.00
2023-03-06T08:32:50.853Z,28.70
2023-03-06T08:33:50.880Z,26.10
2023-03-06T08:34:50.836Z,24.80
2023-03-06T08:35:50.953Z,25.60
2023-03-06T08:36:50.824Z,26.70
2023-03-06T08:37:50.802Z,27.80
2023-03-06T08:38:50.827Z,23.50
2023-03-06T08:39:50.792Z,24.90
2023-03-06T08:40:50.770Z,23.00
2023-03-06T08:41:50.732Z,25.10
2023-03-06T08:42:50.742Z,25.40
2023-03-06T08:43:50.738Z,25.20
2023-03-06T08:44:50.728Z,23.40
2023-03-06T08:45:50.799Z,29.90
2023-03-06T08:46:50.676Z,27.90
2023-03-06T08:47:50.653Z,24.40
2023-03-06T08:48:50.679Z,26.00
2023-03-06T08:49:50.642Z,24.40
2023-03-06T08:50:50.639Z,22.80
2023-03-06T08:51:50.644Z,21.00
2023-03-06T08:52:50.597Z,23.60
2023-03-06T08:53:50.598Z,24.10
2023-03-06T08:54:50.577Z,23.50
2023-03-06T08:55:50.560Z,24.10
2023-03-06T08:56:50.550Z,23.30
2023-03-06T08:57:50.565Z,21.80
2023-03-06T08:58:50.522Z,22.60
2023-03-06T08:59:50.522Z,23.30
2023-03-06T09:00:50.587Z,23.90
2023-03-06T09:01:50.481Z,22.60
2023-03-06T09:02:50.471Z,20.50
2023-03-06T09:03:50.491Z,21.30
2023-03-06T09:04:50.449Z,23.30
2023-03-06T09:05:50.431Z,21.00
2023-03-06T09:06:50.432Z,21.20
2023-03-06T09:07:50.425Z,22.50
2023-03-06T09:08:50.418Z,22.30
2023-03-06T09:09:50.410Z,24.10
2023-03-06T09:10:50.449Z,21.90
2023-03-06T09:11:50.361Z,22.20
2023-03-06T09:12:53.160Z,22.60
2023-03-06T09:13:50.326Z,25.20
2023-03-06T09:14:50.319Z,25.30
2023-03-06T09:15:50.329Z,22.90
2023-03-06T09:16:50.306Z,23.40
2023-03-06T09:17:50.313Z,22.00
2023-03-06T09:18:50.269Z,22.20
2023-03-06T09:19:50.262Z,25.00
2023-03-06T09:20:50.242Z,25.50
2023-03-06T09:21:50.275Z,21.60
2023-03-06T09:22:50.209Z,23.00
2023-03-06T09:23:50.227Z,21.30
2023-03-06T09:24:50.184Z,23.10
2023-03-06T09:25:50.177Z,22.50
2023-03-06T09:26:51.713Z,22.60
2023-03-06T09:28:01.833Z,24.40
2023-03-06T09:28:50.153Z,24.30
2023-03-06T09:29:50.147Z,24.40
2023-03-06T09:30:50.175Z,22.80
2023-03-06T09:31:50.099Z,22.60
2023-03-06T09:32:50.090Z,23.00
2023-03-06T09:33:50.118Z,25.10
2023-03-06T09:34:50.084Z,25.30
2023-03-06T09:35:50.106Z,25.30
2023-03-06T09:36:56.607Z,23.70
2023-03-06T09:37:50.030Z,25.60
2023-03-06T09:38:50.215Z,26.60
2023-03-06T09:39:50.049Z,23.60
2023-03-06T09:40:49.992Z,22.90
2023-03-06T09:41:49.979Z,24.40
2023-03-06T09:42:49.975Z,21.90
2023-03-06T09:43:49.950Z,22.20
2023-03-06T09:44:49.938Z,25.10
2023-03-06T09:45:49.971Z,22.30
2023-03-06T09:46:49.941Z,21.30
2023-03-06T09:47:49.903Z,21.20
2023-03-06T09:48:49.886Z,19.60
2023-03-06T09:49:49.872Z,20.40
2023-03-06T09:50:49.877Z,19.30
2023-03-06T09:51:49.871Z,20.90
2023-03-06T09:52:49.828Z,20.20
2023-03-06T09:53:49.813Z,21.40
2023-03-06T09:54:49.807Z,19.80
2023-03-06T09:55:49.807Z,21.60
2023-03-06T09:56:49.771Z,21.30
2023-03-06T09:57:51.201Z,21.40
2023-03-06T09:58:49.745Z,20.20
2023-03-06T09:59:49.740Z,21.60
2023-03-06T10:00:49.719Z,21.10
2023-03-06T10:01:49.713Z,21.40
2023-03-06T10:02:49.813Z,20.70
2023-03-06T10:03:49.721Z,22.00
2023-03-06T10:04:49.749Z,23.20
2023-03-06T10:05:49.655Z,19.10
2023-03-06T10:06:49.659Z,21.30
2023-03-06T10:07:49.633Z,22.50
2023-03-06T10:08:49.630Z,19.60
2023-03-06T10:09:49.656Z,19.70
2023-03-06T10:10:49.594Z,20.00
2023-03-06T10:11:49.578Z,20.60
2023-03-06T10:12:49.571Z,20.20
2023-03-06T10:13:49.562Z,20.30
2023-03-06T10:14:49.537Z,20.30
2023-03-06T10:15:49.617Z,20.00
2023-03-06T10:16:49.523Z,21.50
2023-03-06T10:17:49.535Z,21.10
2023-03-06T10:18:49.493Z,20.00
2023-03-06T10:19:49.600Z,19.30
2023-03-06T10:20:49.486Z,21.60
2023-03-06T10:21:49.495Z,19.30
2023-03-06T10:23:00.549Z,20.30
2023-03-06T10:23:49.454Z,20.70
2023-03-06T10:24:49.417Z,19.20
2023-03-06T10:25:49.418Z,22.30
2023-03-06T10:26:49.513Z,20.10
2023-03-06T10:27:49.401Z,19.30
2023-03-06T10:28:49.371Z,18.90
2023-03-06T10:30:01.682Z,18.30
2023-03-06T10:30:49.404Z,20.40
2023-03-06T10:31:49.770Z,19.80
2023-03-06T10:32:49.762Z,19.00
2023-03-06T10:33:49.395Z,20.40
2023-03-06T10:34:49.294Z,20.20
2023-03-06T10:35:49.371Z,20.20
2023-03-06T10:36:49.284Z,19.30
2023-03-06T10:37:49.266Z,17.30
2023-03-06T10:38:49.239Z,18.60
2023-03-06T10:39:49.262Z,16.90
2023-03-06T10:40:49.210Z,19.40
2023-03-06T10:41:49.213Z,19.30
2023-03-06T10:42:53.986Z,18.30
2023-03-06T10:43:49.181Z,18.90
2023-03-06T10:44:49.158Z,21.40
2023-03-06T10:45:49.781Z,20.90
2023-03-06T10:46:49.249Z,18.20
2023-03-06T10:47:49.126Z,17.50
2023-03-06T10:48:49.127Z,19.60
2023-03-06T10:49:49.115Z,18.00
2023-03-06T10:50:49.091Z,17.50
2023-03-06T10:51:49.113Z,19.80
2023-03-06T10:52:49.080Z,16.90
2023-03-06T10:53:49.039Z,19.90
2023-03-06T10:54:49.052Z,21.30
2023-03-06T10:55:49.017Z,16.80
2023-03-06T10:56:49.010Z,18.20
2023-03-06T10:57:49.038Z,20.50
2023-03-06T10:58:49.003Z,21.30
2023-03-06T10:59:48.993Z,23.20
2023-03-06T11:00:48.959Z,19.30
2023-03-06T11:01:48.995Z,16.80
2023-03-06T11:02:48.926Z,21.10
2023-03-06T11:03:48.939Z,17.90
2023-03-06T11:04:48.986Z,17.40
2023-03-06T11:05:48.927Z,20.20
2023-03-06T11:06:48.917Z,17.90
2023-03-06T11:07:48.864Z,17.70
2023-03-06T11:08:48.878Z,18.10
2023-03-06T11:09:48.970Z,16.80
2023-03-06T11:10:48.851Z,18.00
2023-03-06T11:11:48.812Z,18.20
2023-03-06T11:12:48.798Z,19.20
2023-03-06T11:13:48.807Z,18.40
2023-03-06T11:14:48.805Z,18.90
2023-03-06T11:15:48.803Z,21.80
2023-03-06T11:16:48.772Z,18.30
2023-03-06T11:17:48.767Z,19.50
2023-03-06T11:18:48.750Z,17.70
2023-03-06T11:19:48.729Z,17.70
2023-03-06T11:20:52.410Z,18.30
2023-03-06T11:21:48.714Z,17.10
2023-03-06T11:22:49.307Z,17.90
2023-03-06T11:23:48.685Z,18.30
2023-03-06T11:24:48.707Z,18.50
2023-03-06T11:25:48.631Z,15.60
2023-03-06T11:26:48.632Z,16.10
2023-03-06T11:27:48.647Z,18.40
2023-03-06T11:28:48.716Z,17.30
2023-03-06T11:29:49.249Z,17.10
2023-03-06T11:30:48.568Z,15.20
2023-03-06T11:31:48.556Z,17.00
2023-03-06T11:32:48.544Z,18.20
2023-03-06T11:33:48.591Z,17.10
2023-03-06T11:34:50.428Z,16.60
2023-03-06T11:35:48.533Z,18.20
2023-03-06T11:36:48.502Z,19.10
2023-03-06T11:37:48.483Z,18.10
2023-03-06T11:38:48.465Z,15.30
2023-03-06T11:39:48.564Z,16.10
2023-03-06T11:40:48.449Z,16.20
2023-03-06T11:41:48.439Z,15.70
2023-03-06T11:42:48.432Z,14.50
2023-03-06T11:43:48.398Z,14.10
2023-03-06T11:44:48.399Z,14.80
2023-03-06T11:45:48.432Z,14.60
2023-03-06T11:46:48.474Z,15.10
2023-03-06T11:47:48.363Z,15.90
2023-03-06T11:48:48.390Z,15.70
2023-03-06T11:49:48.348Z,17.10
2023-03-06T11:50:48.326Z,14.80
2023-03-06T11:51:48.340Z,14.30
2023-03-06T11:52:48.299Z,14.00
2023-03-06T11:53:48.275Z,14.90
2023-03-06T11:54:48.287Z,14.60
2023-03-06T11:55:48.267Z,15.70
2023-03-06T11:56:48.277Z,14.80
2023-03-06T11:57:48.253Z,14.40
2023-03-06T11:58:48.216Z,15.20
2023-03-06T11:59:48.210Z,14.20
2023-03-06T12:00:48.237Z,13.60
2023-03-06T12:01:48.204Z,12.80
2023-03-06T12:02:48.161Z,14.30
2023-03-06T12:03:48.184Z,14.60
2023-03-06T12:04:48.146Z,15.10
2023-03-06T12:05:48.192Z,16.20
2023-03-06T12:06:48.192Z,14.40
2023-03-06T12:07:48.120Z,13.30
2023-03-06T12:08:48.118Z,14.70
2023-03-06T12:09:48.112Z,17.40
2023-03-06T12:10:51.745Z,15.30
2023-03-06T12:11:48.066Z,17.60
2023-03-06T12:12:48.037Z,14.60
2023-03-06T12:13:48.068Z,14.70
2023-03-06T12:14:48.037Z,16.00
2023-03-06T12:15:48.053Z,15.50
2023-03-06T12:16:48.050Z,15.70
2023-03-06T12:17:47.973Z,14.20
2023-03-06T12:18:47.963Z,16.10
2023-03-06T12:19:47.949Z,14.60
2023-03-06T12:20:47.942Z,15.10
2023-03-06T12:21:47.978Z,15.40
2023-03-06T12:22:57.889Z,15.60
2023-03-06T12:23:47.915Z,15.70
2023-03-06T12:24:47.896Z,16.20
2023-03-06T12:25:47.884Z,16.30
2023-03-06T12:26:47.867Z,16.50
2023-03-06T12:27:47.911Z,16.50
2023-03-06T12:28:47.842Z,15.60
2023-03-06T12:29:47.822Z,15.80
2023-03-06T12:30:47.831Z,16.40
2023-03-06T12:31:47.842Z,16.90
2023-03-06T12:32:47.892Z,15.50
2023-03-06T12:33:47.818Z,15.40
2023-03-06T12:34:47.768Z,16.20
2023-03-06T12:35:47.830Z,18.50
2023-03-06T12:36:47.751Z,19.40
2023-03-06T12:37:47.732Z,18.00
2023-03-06T12:38:47.739Z,19.70
2023-03-06T12:39:47.743Z,20.30
2023-03-06T12:40:47.687Z,19.80
2023-03-06T12:41:47.684Z,18.70
2023-03-06T12:42:47.650Z,20.60
2023-03-06T12:43:47.638Z,19.70
2023-03-06T12:44:47.645Z,20.70
2023-03-06T12:45:47.715Z,19.50
2023-03-06T12:46:47.612Z,19.60
2023-03-06T12:47:47.593Z,20.00
2023-03-06T12:48:47.575Z,19.90
2023-03-06T12:49:48.476Z,20.50
2023-03-06T12:50:47.571Z,19.80
2023-03-06T12:51:47.581Z,20.40
2023-03-06T12:52:47.537Z,19.50
2023-03-06T12:53:47.522Z,19.80